Time;durP1;ratioP1;P1;durP2;ratioP2;P2;SDS_P1;SDS_P2;PMS_P1;PMS_P2;Temp;Humidity;BMP_temperature;BMP_pressure;BME280_temperature;BME280_humidity;BME280_pressure;Samples;Min_cycle;Max_cycle;Signal;HPM_P1;HPM_P2
2023/05/14 00:00:43;;;;;;;16.13;7.22;;;11.60;99.90;;;;;;5123317;27;20047;-80
2023/05/14 00:03:09;;;;;;;19.15;7.75;;;11.60;99.90;;;;;;5103314;28;20051;-80
2023/05/14 00:05:35;;;;;;;18.63;7.65;;;11.60;99.90;;;;;;5122481;27;20561;-80
2023/05/14 00:08:01;;;;;;;23.98;7.88;;;11.60;99.90;;;;;;5127759;27;20046;-80
2023/05/14 00:10:26;;;;;;;11.73;7.00;;;11.60;99.90;;;;;;5125121;27;20035;-80
2023/05/14 00:12:52;;;;;;;13.95;7.25;;;11.80;99.90;;;;;;5127578;27;20478;-80
2023/05/14 00:15:18;;;;;;;16.48;7.18;;;11.50;99.90;;;;;;5140574;27;20050;-80
2023/05/14 00:17:44;;;;;;;17.90;7.38;;;11.60;99.90;;;;;;5125417;27;20104;-80
2023/05/14 00:20:11;;;;;;;15.90;7.93;;;11.50;99.90;;;;;;5127458;27;20042;-80
2023/05/14 00:22:38;;;;;;;14.75;7.13;;;11.50;99.90;;;;;;5127212;27;20051;-80
2023/05/14 00:25:05;;;;;;;14.20;7.07;;;11.50;99.90;;;;;;5127437;27;20038;-79
2023/05/14 00:27:31;;;;;;;11.57;7.00;;;11.50;99.90;;;;;;5127307;27;20418;-80
2023/05/14 00:29:56;;;;;;;13.50;6.75;;;11.40;99.90;;;;;;5108216;27;20031;-80
2023/05/14 00:32:23;;;;;;;15.77;8.00;;;11.40;99.90;;;;;;5116694;27;20051;-80
2023/05/14 00:34:48;;;;;;;13.52;7.95;;;11.30;99.90;;;;;;5111831;27;20458;-80
2023/05/14 00:37:14;;;;;;;13.77;7.38;;;11.30;99.90;;;;;;5126348;27;20129;-80
2023/05/14 00:39:40;;;;;;;19.98;8.00;;;11.30;99.90;;;;;;5146470;27;20038;-80
2023/05/14 00:42:06;;;;;;;14.73;7.47;;;11.30;99.90;;;;;;5113154;27;20064;-80
2023/05/14 00:44:31;;;;;;;17.05;7.72;;;11.30;99.90;;;;;;5126560;27;20047;-80
2023/05/14 00:46:57;;;;;;;16.00;7.68;;;11.20;99.90;;;;;;5119504;27;20058;-80
2023/05/14 00:49:24;;;;;;;12.27;7.10;;;11.20;99.90;;;;;;5129705;27;20091;-80
2023/05/14 00:51:51;;;;;;;14.63;6.95;;;11.20;99.90;;;;;;5130073;27;20489;-80
2023/05/14 00:54:17;;;;;;;14.55;7.78;;;11.10;99.90;;;;;;5129671;27;20039;-81
2023/05/14 00:56:44;;;;;;;21.92;8.93;;;11.10;99.90;;;;;;5130289;27;20382;-80
2023/05/14 00:59:10;;;;;;;13.70;6.85;;;11.10;99.90;;;;;;5129901;27;20065;-80
2023/05/14 01:01:36;;;;;;;13.90;7.38;;;11.10;99.90;;;;;;5147811;27;20392;-80
2023/05/14 01:04:02;;;;;;;19.10;7.57;;;11.00;99.90;;;;;;5120035;27;20125;-80
2023/05/14 01:06:46;;;;;;;14.20;7.60;;;11.00;99.90;;;;;;5128743;27;20507;-80
2023/05/14 01:09:39;;;;;;;13.10;7.28;;;11.00;99.90;;;;;;5130196;27;20085;-80
2023/05/14 01:12:33;;;;;;;21.03;7.90;;;11.00;99.90;;;;;;5112645;27;20082;-80
2023/05/14 01:15:17;;;;;;;13.70;6.80;;;11.00;99.90;;;;;;5147914;27;20096;-80
2023/05/14 01:17:50;;;;;;;15.20;6.40;;;11.00;99.90;;;;;;5148484;27;20047;-80
2023/05/14 01:20:16;;;;;;;13.52;6.68;;;11.00;99.90;;;;;;5129038;27;20074;-80
2023/05/14 01:22:42;;;;;;;11.10;6.65;;;11.00;99.90;;;;;;5132920;27;20080;-81
2023/05/14 01:25:08;;;;;;;11.80;6.97;;;10.90;99.90;;;;;;5130808;27;20451;-80
2023/05/14 01:27:54;;;;;;;14.48;7.30;;;10.80;99.90;;;;;;5107020;27;20039;-80
2023/05/14 01:30:30;;;;;;;17.95;6.60;;;10.80;99.90;;;;;;5103829;27;20046;-80
2023/05/14 01:32:59;;;;;;;10.55;6.38;;;10.70;99.90;;;;;;5131946;27;20057;-81
2023/05/14 01:35:29;;;;;;;11.02;6.32;;;10.70;99.90;;;;;;5129191;27;20046;-80
2023/05/14 01:37:57;;;;;;;13.95;6.78;;;10.70;99.90;;;;;;5112324;27;20078;-80
2023/05/14 01:40:23;;;;;;;13.40;6.63;;;10.60;99.90;;;;;;5133347;27;20050;-80
2023/05/14 01:42:50;;;;;;;9.52;6.50;;;10.60;99.90;;;;;;5118994;27;20046;-80
2023/05/14 01:45:18;;;;;;;11.27;6.25;;;10.60;99.90;;;;;;5133716;27;20050;-80
2023/05/14 01:47:44;;;;;;;14.40;7.07;;;10.60;99.90;;;;;;5115872;27;20038;-80
2023/05/14 01:50:10;;;;;;;13.48;7.45;;;10.60;99.90;;;;;;5129514;27;20047;-80
2023/05/14 01:52:35;;;;;;;14.23;7.10;;;10.60;99.90;;;;;;5146753;27;20034;-80
2023/05/14 01:55:01;;;;;;;14.23;7.03;;;10.60;99.90;;;;;;5133246;27;20039;-80
2023/05/14 01:57:27;;;;;;;10.90;6.57;;;10.60;99.90;;;;;;5118211;27;20054;-80
2023/05/14 01:59:53;;;;;;;13.77;7.75;;;10.60;99.90;;;;;;5152062;27;20054;-80
2023/05/14 02:02:19;;;;;;;18.25;7.20;;;10.70;99.90;;;;;;5132488;27;20409;-80
2023/05/14 02:04:45;;;;;;;16.63;7.65;;;10.90;99.90;;;;;;5129748;27;20122;-80
2023/05/14 02:07:10;;;;;;;20.20;8.05;;;10.60;99.90;;;;;;5125897;27;20035;-80
2023/05/14 02:09:36;;;;;;;16.40;7.30;;;10.60;99.90;;;;;;5103020;27;20058;-80
2023/05/14 02:12:02;;;;;;;12.73;6.90;;;10.60;99.90;;;;;;5129076;27;20034;-80
2023/05/14 02:14:27;;;;;;;16.92;8.30;;;10.60;99.90;;;;;;5129732;27;20090;-80
2023/05/14 02:16:53;;;;;;;16.92;8.38;;;10.60;99.90;;;;;;5128932;27;20061;-80
2023/05/14 02:19:19;;;;;;;17.95;8.05;;;10.60;99.90;;;;;;5115881;27;20046;-80
2023/05/14 02:21:45;;;;;;;15.80;7.70;;;10.60;99.90;;;;;;5129416;27;20039;-80
2023/05/14 02:24:10;;;;;;;15.02;8.45;;;10.60;99.90;;;;;;5122196;27;20039;-80
2023/05/14 02:26:36;;;;;;;19.52;8.35;;;10.70;99.90;;;;;;5132816;27;20117;-80
2023/05/14 02:29:01;;;;;;;17.15;8.13;;;10.60;99.90;;;;;;5130272;27;20129;-80
2023/05/14 02:31:27;;;;;;;19.27;8.23;;;10.80;99.90;;;;;;5127495;27;20122;-80
2023/05/14 02:33:53;;;;;;;24.08;8.18;;;10.60;99.90;;;;;;5105110;27;20131;-80
2023/05/14 02:36:18;;;;;;;18.48;8.63;;;10.50;99.90;;;;;;5114652;27;20074;-80
2023/05/14 02:38:44;;;;;;;16.85;7.68;;;10.50;99.90;;;;;;5150629;27;20035;-81
2023/05/14 02:41:10;;;;;;;20.42;9.05;;;10.50;99.90;;;;;;5114881;27;20062;-80
2023/05/14 02:43:35;;;;;;;15.35;8.27;;;10.50;99.90;;;;;;5132237;27;20046;-80
2023/05/14 02:46:01;;;;;;;22.90;9.18;;;10.50;99.90;;;;;;5131271;27;20042;-81
2023/05/14 02:48:27;;;;;;;21.20;8.60;;;10.50;99.90;;;;;;5108755;27;20043;-80
2023/05/14 02:50:52;;;;;;;21.00;8.75;;;10.60;99.90;;;;;;5099353;27;20424;-80
2023/05/14 02:53:18;;;;;;;19.50;8.63;;;10.50;99.90;;;;;;5121087;27;20114;-80
2023/05/14 02:55:44;;;;;;;23.58;9.57;;;10.50;99.90;;;;;;5130188;27;20051;-80
2023/05/14 02:58:09;;;;;;;20.05;9.52;;;10.50;99.90;;;;;;5132482;27;20050;-80
2023/05/14 03:00:35;;;;;;;22.83;9.63;;;10.60;99.90;;;;;;5129576;27;20051;-79
2023/05/14 03:03:01;;;;;;;19.77;10.13;;;10.40;99.90;;;;;;5126200;27;20100;-80
2023/05/14 03:05:26;;;;;;;23.17;9.70;;;10.40;99.90;;;;;;5124693;27;20050;-80
2023/05/14 03:07:53;;;;;;;25.10;9.90;;;10.40;99.90;;;;;;5114327;27;20047;-80
2023/05/14 03:10:19;;;;;;;23.67;9.88;;;10.40;99.90;;;;;;5115996;27;20031;-80
2023/05/14 03:12:44;;;;;;;25.63;9.93;;;10.40;99.90;;;;;;5150979;27;20768;-80
2023/05/14 03:15:10;;;;;;;20.45;10.00;;;10.40;99.90;;;;;;5129392;27;20083;-80
2023/05/14 03:17:36;;;;;;;21.48;8.77;;;10.40;99.90;;;;;;5114211;27;20099;-80
2023/05/14 03:20:02;;;;;;;25.90;9.13;;;10.40;99.90;;;;;;5129206;27;20350;-80
2023/05/14 03:22:28;;;;;;;18.02;7.70;;;10.40;99.90;;;;;;5149980;27;20046;-80
2023/05/14 03:24:54;;;;;;;15.45;7.97;;;10.30;99.90;;;;;;5150697;27;20064;-80
2023/05/14 03:27:19;;;;;;;16.90;7.25;;;10.30;99.90;;;;;;5112915;27;20166;-80
2023/05/14 03:29:45;;;;;;;14.77;7.15;;;10.20;99.90;;;;;;5114476;27;20046;-80
2023/05/14 03:32:11;;;;;;;19.08;8.38;;;10.20;99.90;;;;;;5126649;27;20047;-80
2023/05/14 03:34:36;;;;;;;17.95;9.02;;;10.10;99.90;;;;;;5124604;27;20082;-80
2023/05/14 03:37:02;;;;;;;16.10;8.75;;;10.10;99.90;;;;;;5124284;27;20042;-80
2023/05/14 03:39:28;;;;;;;24.17;9.23;;;10.10;99.90;;;;;;5097951;27;20485;-80
2023/05/14 03:41:56;;;;;;;18.30;8.80;;;10.10;99.90;;;;;;5113030;27;20115;-80
2023/05/14 03:44:21;;;;;;;21.85;9.27;;;10.10;99.90;;;;;;5112293;27;20051;-81
2023/05/14 03:46:47;;;;;;;20.02;9.38;;;10.20;99.90;;;;;;5127365;27;20031;-80
2023/05/14 03:49:13;;;;;;;16.23;8.50;;;10.20;99.90;;;;;;5142807;27;20034;-80
2023/05/14 03:51:39;;;;;;;18.20;9.32;;;10.00;99.90;;;;;;5130243;27;20058;-80
2023/05/14 03:54:06;;;;;;;16.00;8.93;;;10.00;99.90;;;;;;5131112;27;20454;-80
2023/05/14 03:56:31;;;;;;;28.95;11.93;;;10.00;99.90;;;;;;5129096;27;20408;-80
2023/05/14 03:58:57;;;;;;;21.80;10.70;;;10.00;99.90;;;;;;5149827;27;20043;-81
2023/05/14 04:01:23;;;;;;;29.15;11.50;;;10.10;99.90;;;;;;5129813;27;20561;-81
2023/05/14 04:03:48;;;;;;;26.52;11.57;;;10.10;99.90;;;;;;5120078;27;20121;-80
2023/05/14 04:06:15;;;;;;;28.52;12.13;;;10.20;99.90;;;;;;5113109;27;20055;-80
2023/05/14 04:08:40;;;;;;;40.50;15.30;;;10.20;99.90;;;;;;5130339;27;20497;-80
2023/05/14 04:11:06;;;;;;;27.65;12.95;;;10.30;99.90;;;;;;5130097;27;20054;-80
2023/05/14 04:13:32;;;;;;;27.33;13.18;;;10.40;99.90;;;;;;5130251;27;20503;-81
2023/05/14 04:15:58;;;;;;;39.45;15.68;;;10.50;99.90;;;;;;5130075;27;20047;-81
2023/05/14 04:18:24;;;;;;;33.70;15.43;;;10.50;99.90;;;;;;5112056;27;20073;-81
2023/05/14 04:20:50;;;;;;;28.88;12.93;;;10.60;99.90;;;;;;5130017;27;20107;-80
2023/05/14 04:23:15;;;;;;;39.17;14.13;;;10.60;99.90;;;;;;5130584;27;20042;-81
2023/05/14 04:25:41;;;;;;;27.67;13.00;;;10.70;99.90;;;;;;5129972;27;20456;-81
2023/05/14 04:28:06;;;;;;;32.28;12.23;;;10.70;99.90;;;;;;5129109;27;20099;-80
2023/05/14 04:30:32;;;;;;;26.67;12.02;;;10.80;99.90;;;;;;5129354;27;20050;-80
2023/05/14 04:32:58;;;;;;;25.80;11.95;;;10.80;99.90;;;;;;5148096;27;20064;-80
2023/05/14 04:35:24;;;;;;;24.58;11.00;;;10.70;99.90;;;;;;5126545;27;20486;-80
2023/05/14 04:37:49;;;;;;;29.25;11.70;;;10.80;99.90;;;;;;5125056;27;20374;-81
2023/05/14 04:40:15;;;;;;;29.92;11.80;;;10.80;99.90;;;;;;5130009;27;20050;-80
2023/05/14 04:42:42;;;;;;;27.05;11.13;;;10.90;99.90;;;;;;5116394;27;20520;-80
2023/05/14 04:45:08;;;;;;;29.48;11.60;;;10.90;99.90;;;;;;5108737;28;20053;-80
2023/05/14 04:47:34;;;;;;;30.85;11.52;;;10.90;99.90;;;;;;5122715;27;20481;-80
2023/05/14 04:50:00;;;;;;;28.58;11.23;;;11.00;99.90;;;;;;5126988;27;20035;-80
2023/05/14 04:52:26;;;;;;;32.42;11.07;;;11.00;99.90;;;;;;5121952;27;20427;-81
2023/05/14 04:54:52;;;;;;;28.42;10.85;;;11.10;99.90;;;;;;5127186;28;20045;-81
2023/05/14 04:57:17;;;;;;;27.45;11.32;;;11.10;99.90;;;;;;5126474;27;20179;-81
2023/05/14 04:59:43;;;;;;;29.52;12.13;;;11.20;99.90;;;;;;5113140;27;20077;-81
2023/05/14 05:02:09;;;;;;;29.77;12.05;;;11.20;99.90;;;;;;5127918;27;20054;-81
2023/05/14 05:04:35;;;;;;;26.58;10.55;;;11.30;99.90;;;;;;5098099;27;20058;-81
2023/05/14 05:07:01;;;;;;;21.08;9.35;;;11.30;99.90;;;;;;5128368;27;20130;-81
2023/05/14 05:09:26;;;;;;;22.67;9.40;;;11.30;99.90;;;;;;5112890;27;20389;-80
2023/05/14 05:11:52;;;;;;;25.67;10.18;;;11.40;99.90;;;;;;5110630;27;20043;-80
2023/05/14 05:14:18;;;;;;;25.25;9.10;;;11.70;99.90;;;;;;5129792;27;20035;-81
2023/05/14 05:16:43;;;;;;;31.85;10.10;;;11.50;99.90;;;;;;5110611;27;20137;-81
2023/05/14 05:19:09;;;;;;;24.92;9.07;;;11.50;99.90;;;;;;5117149;27;20054;-81
2023/05/14 05:21:35;;;;;;;37.17;11.30;;;11.60;99.90;;;;;;5150738;27;20034;-80
2023/05/14 05:24:01;;;;;;;31.67;10.32;;;11.60;99.90;;;;;;5134727;27;20448;-81
2023/05/14 05:26:27;;;;;;;28.65;9.02;;;11.70;99.90;;;;;;5133001;27;20051;-81
2023/05/14 05:28:52;;;;;;;24.77;9.23;;;11.70;99.90;;;;;;5132218;27;20039;-80
2023/05/14 05:31:18;;;;;;;28.38;9.80;;;11.80;99.90;;;;;;5132480;27;20500;-80
2023/05/14 05:33:44;;;;;;;28.83;9.65;;;11.90;99.90;;;;;;5132475;27;20053;-81
2023/05/14 05:36:10;;;;;;;29.95;9.65;;;11.90;99.90;;;;;;5114644;27;20042;-81
2023/05/14 05:38:36;;;;;;;27.73;9.60;;;12.00;99.90;;;;;;5104228;27;20524;-81
2023/05/14 05:41:01;;;;;;;35.05;9.93;;;12.10;99.90;;;;;;5132450;27;20042;-80
2023/05/14 05:43:27;;;;;;;24.55;9.07;;;12.20;99.90;;;;;;5116329;27;20057;-81
2023/05/14 05:45:53;;;;;;;32.88;9.32;;;12.30;99.90;;;;;;5130563;27;20130;-81
2023/05/14 05:48:19;;;;;;;27.45;9.60;;;12.30;99.90;;;;;;5133097;27;20473;-81
2023/05/14 05:50:48;;;;;;;30.10;9.20;;;12.50;99.90;;;;;;5152018;27;20050;-81
2023/05/14 05:53:15;;;;;;;26.55;8.73;;;12.60;99.90;;;;;;5133441;27;20120;-81
2023/05/14 05:55:41;;;;;;;27.90;8.90;;;12.70;99.90;;;;;;5132199;27;20118;-81
2023/05/14 05:58:07;;;;;;;30.02;9.43;;;12.80;99.90;;;;;;5133049;27;20176;-80
2023/05/14 06:00:33;;;;;;;26.08;8.45;;;13.00;99.90;;;;;;5115486;27;20116;-81
2023/05/14 06:02:58;;;;;;;21.83;8.73;;;12.90;99.90;;;;;;5129860;27;20526;-81
2023/05/14 06:05:24;;;;;;;26.73;9.23;;;13.00;99.90;;;;;;5115053;27;20061;-80
2023/05/14 06:07:52;;;;;;;26.52;8.43;;;13.00;99.90;;;;;;5131079;27;20039;-80
2023/05/14 06:10:18;;;;;;;23.55;8.57;;;13.10;99.90;;;;;;5122200;27;20073;-80
2023/05/14 06:12:44;;;;;;;27.75;7.70;;;13.20;99.90;;;;;;5132434;27;20485;-79
2023/05/14 06:15:11;;;;;;;23.80;7.85;;;13.30;99.90;;;;;;5104522;27;20048;-80
2023/05/14 06:17:37;;;;;;;24.80;7.93;;;13.30;99.90;;;;;;5090732;28;20059;-82
2023/05/14 06:20:04;;;;;;;18.73;7.18;;;13.40;99.90;;;;;;5089449;27;20450;-79
2023/05/14 06:22:30;;;;;;;22.70;7.50;;;13.50;99.90;;;;;;5075369;28;20047;-80
2023/05/14 06:24:56;;;;;;;19.48;6.88;;;13.60;99.90;;;;;;5095672;27;20055;-80
2023/05/14 06:27:21;;;;;;;24.05;7.68;;;13.70;99.90;;;;;;5109685;27;20407;-80
2023/05/14 06:29:47;;;;;;;17.52;6.38;;;13.90;99.90;;;;;;5103378;27;20054;-80
2023/05/14 06:32:14;;;;;;;24.23;6.93;;;14.00;99.90;;;;;;5079931;28;20123;-80
2023/05/14 06:34:41;;;;;;;15.63;6.18;;;14.10;99.90;;;;;;5083890;27;20053;-80
2023/05/14 06:37:08;;;;;;;21.77;6.22;;;14.20;99.90;;;;;;5098903;28;20043;-80
2023/05/14 06:39:34;;;;;;;18.17;5.78;;;14.30;99.90;;;;;;5094981;27;20480;-80
2023/05/14 06:42:00;;;;;;;21.77;5.68;;;14.40;99.90;;;;;;5111778;27;20146;-80
2023/05/14 06:44:26;;;;;;;26.80;5.10;;;14.60;99.90;;;;;;5096394;27;20143;-80
2023/05/14 06:46:52;;;;;;;13.98;4.70;;;14.60;99.90;;;;;;5108038;28;20039;-80
2023/05/14 06:49:18;;;;;;;20.33;4.97;;;14.60;99.90;;;;;;5106721;27;20112;-80
2023/05/14 06:51:44;;;;;;;19.55;5.20;;;14.80;99.90;;;;;;5127472;27;20035;-79
2023/05/14 06:54:10;;;;;;;19.23;4.97;;;14.90;99.90;;;;;;5107521;27;20345;-80
2023/05/14 06:56:36;;;;;;;20.05;4.57;;;14.90;99.90;;;;;;5100897;27;20070;-80
2023/05/14 06:59:01;;;;;;;19.10;5.53;;;15.00;99.90;;;;;;5110662;27;20487;-83
2023/05/14 07:01:27;;;;;;;15.15;4.85;;;15.10;99.90;;;;;;5108072;27;20038;-83
2023/05/14 07:03:53;;;;;;;14.35;4.57;;;15.30;99.90;;;;;;5088593;27;20135;-80
2023/05/14 07:06:18;;;;;;;19.92;5.40;;;15.20;99.90;;;;;;5109525;27;20082;-83
2023/05/14 07:08:45;;;;;;;16.05;5.30;;;15.30;99.90;;;;;;5091265;27;20554;-81
2023/05/14 07:11:12;;;;;;;14.23;5.20;;;15.30;99.90;;;;;;5097787;28;20139;-81
2023/05/14 07:13:38;;;;;;;21.45;5.65;;;15.40;99.90;;;;;;5090223;27;20392;-81
2023/05/14 07:16:06;;;;;;;19.35;5.35;;;15.50;99.90;;;;;;5124136;27;20081;-80
2023/05/14 07:18:31;;;;;;;20.45;6.22;;;15.50;99.90;;;;;;5125547;27;20140;-80
2023/05/14 07:20:57;;;;;;;13.85;5.38;;;15.60;99.90;;;;;;5117087;27;20115;-81
2023/05/14 07:23:23;;;;;;;16.13;4.95;;;15.60;99.90;;;;;;5125743;27;20454;-81
2023/05/14 07:25:48;;;;;;;17.52;5.65;;;15.60;99.90;;;;;;5104298;27;20042;-81
2023/05/14 07:28:14;;;;;;;16.15;5.57;;;15.60;99.90;;;;;;5114338;27;20046;-80
2023/05/14 07:30:40;;;;;;;15.88;5.30;;;15.60;99.90;;;;;;5128073;27;20093;-81
2023/05/14 07:33:06;;;;;;;20.67;5.13;;;15.60;99.90;;;;;;5127248;27;20115;-80
2023/05/14 07:35:31;;;;;;;13.23;5.50;;;15.50;99.90;;;;;;5126651;27;20055;-80
2023/05/14 07:37:57;;;;;;;13.90;5.50;;;15.50;99.90;;;;;;5107559;27;20049;-80
2023/05/14 07:40:23;;;;;;;15.90;5.60;;;15.40;99.90;;;;;;5120879;27;20045;-80
2023/05/14 07:42:50;;;;;;;16.55;6.10;;;15.50;99.90;;;;;;5131603;27;20047;-80
2023/05/14 07:45:15;;;;;;;16.10;5.30;;;15.50;99.90;;;;;;5131021;27;20050;-80
2023/05/14 07:47:41;;;;;;;14.60;5.80;;;15.50;99.90;;;;;;5130323;27;20050;-80
2023/05/14 07:50:07;;;;;;;18.73;6.25;;;15.50;99.90;;;;;;5131077;27;20065;-80
2023/05/14 07:52:33;;;;;;;16.48;6.22;;;15.50;99.90;;;;;;5130955;27;20038;-80
2023/05/14 07:55:00;;;;;;;17.00;5.90;;;15.50;99.90;;;;;;5131051;27;20038;-80
2023/05/14 07:57:26;;;;;;;15.10;5.97;;;15.50;99.90;;;;;;5112706;27;20121;-80
2023/05/14 07:59:52;;;;;;;18.35;6.35;;;15.60;99.90;;;;;;5114576;27;20191;-80
2023/05/14 08:02:17;;;;;;;15.15;6.72;;;15.70;99.90;;;;;;5129032;27;20389;-80
2023/05/14 08:04:44;;;;;;;12.43;6.25;;;15.90;99.90;;;;;;5121241;27;20082;-80
2023/05/14 08:07:10;;;;;;;16.23;6.22;;;16.00;99.90;;;;;;5113357;27;20053;-80
2023/05/14 08:09:35;;;;;;;11.10;5.82;;;16.10;99.90;;;;;;5130307;27;20046;-80
2023/05/14 08:12:01;;;;;;;18.45;6.05;;;16.30;99.90;;;;;;5130677;27;20592;-80
2023/05/14 08:14:27;;;;;;;17.02;6.45;;;16.40;99.90;;;;;;5148918;27;20042;-81
2023/05/14 08:16:53;;;;;;;16.55;6.00;;;16.50;99.90;;;;;;5129784;27;20039;-80
2023/05/14 08:19:19;;;;;;;19.27;6.35;;;16.50;99.90;;;;;;5127411;27;20561;-81
2023/05/14 08:21:45;;;;;;;18.30;6.43;;;16.60;99.90;;;;;;5145351;27;20043;-80
2023/05/14 08:24:11;;;;;;;14.63;5.95;;;16.70;99.90;;;;;;5148883;27;20042;-80
2023/05/14 08:26:37;;;;;;;15.15;5.80;;;16.80;99.90;;;;;;5112843;27;20387;-81
2023/05/14 08:29:04;;;;;;;13.90;6.00;;;16.90;99.90;;;;;;5131410;27;20519;-81
2023/05/14 08:31:29;;;;;;;14.40;6.85;;;17.00;99.90;;;;;;5111050;27;20137;-81
2023/05/14 08:33:55;;;;;;;19.50;6.45;;;17.20;99.90;;;;;;5121835;27;20122;-82
2023/05/14 08:36:21;;;;;;;16.40;6.47;;;17.30;99.90;;;;;;5125247;27;20405;-78
2023/05/14 08:38:47;;;;;;;12.82;5.63;;;17.40;99.90;;;;;;5125951;27;20042;-78
2023/05/14 08:41:15;;;;;;;15.52;6.43;;;17.40;99.90;;;;;;5126135;27;20057;-78
2023/05/14 08:43:50;;;;;;;13.85;5.85;;;17.50;99.90;;;;;;5148387;27;20055;-78
2023/05/14 08:46:19;;;;;;;16.85;5.82;;;17.60;99.90;;;;;;5116355;27;20392;-78
2023/05/14 08:48:51;;;;;;;16.20;6.00;;;17.60;99.90;;;;;;5126930;27;20058;-78
2023/05/14 08:51:16;;;;;;;15.65;6.45;;;17.60;99.90;;;;;;5124387;28;20043;-78
2023/05/14 08:53:43;;;;;;;13.70;5.55;;;17.60;99.90;;;;;;5119165;28;20042;-78
2023/05/14 08:56:09;;;;;;;22.17;6.45;;;17.60;99.90;;;;;;5148729;27;20471;-79
2023/05/14 08:58:35;;;;;;;12.90;5.53;;;17.60;99.90;;;;;;5147316;27;20528;-78
2023/05/14 09:01:01;;;;;;;17.50;7.10;;;17.70;99.90;;;;;;5148379;27;20043;-78
2023/05/14 09:03:27;;;;;;;13.30;6.20;;;17.80;99.90;;;;;;5121018;28;20043;-78
2023/05/14 09:05:53;;;;;;;12.05;6.00;;;18.00;99.90;;;;;;5124460;28;20122;-78
2023/05/14 09:08:19;;;;;;;18.77;7.40;;;18.10;99.90;;;;;;5141916;27;20399;-80
2023/05/14 09:10:45;;;;;;;13.32;6.35;;;18.30;99.90;;;;;;5109692;28;20173;-80
2023/05/14 09:13:11;;;;;;;26.85;6.13;;;18.40;99.90;;;;;;5140834;27;20450;-80
2023/05/14 09:15:38;;;;;;;19.20;5.70;;;18.50;99.90;;;;;;5125997;28;20130;-78
2023/05/14 09:18:05;;;;;;;13.18;6.25;;;18.50;99.90;;;;;;5123320;27;20058;-78
2023/05/14 09:20:31;;;;;;;17.95;6.28;;;18.60;99.90;;;;;;5146510;27;20049;-78
2023/05/14 09:23:00;;;;;;;14.35;6.00;;;18.60;99.90;;;;;;5126437;27;20057;-78
2023/05/14 09:25:29;;;;;;;16.67;6.07;;;18.70;99.90;;;;;;5129680;27;20055;-78
2023/05/14 09:27:56;;;;;;;11.40;5.70;;;18.80;99.90;;;;;;5147889;27;20051;-78
2023/05/14 09:30:22;;;;;;;14.45;5.20;;;18.90;99.90;;;;;;5148233;27;20461;-78
2023/05/14 09:32:49;;;;;;;13.60;5.85;;;19.00;99.90;;;;;;5146880;27;20043;-78
2023/05/14 09:35:19;;;;;;;12.18;5.07;;;19.00;99.90;;;;;;5117265;27;20050;-78
2023/05/14 09:37:47;;;;;;;13.30;5.93;;;19.10;99.90;;;;;;5128082;27;20069;-78
2023/05/14 09:40:14;;;;;;;13.10;6.07;;;19.00;99.90;;;;;;5128675;27;20046;-78
2023/05/14 09:42:40;;;;;;;13.93;5.30;;;19.00;99.90;;;;;;5115400;27;20119;-80
2023/05/14 09:45:08;;;;;;;9.73;5.65;;;19.10;99.90;;;;;;5104613;27;20103;-78
2023/05/14 09:47:34;;;;;;;10.13;5.40;;;19.20;99.90;;;;;;5149879;27;20038;-79
2023/05/14 09:50:00;;;;;;;13.93;6.10;;;19.30;99.90;;;;;;5152382;27;20411;-79
2023/05/14 09:52:26;;;;;;;11.55;5.60;;;19.50;99.90;;;;;;5150369;27;20544;-79
2023/05/14 09:54:52;;;;;;;17.17;5.50;;;19.60;99.90;;;;;;5151110;27;20044;-79
2023/05/14 09:57:19;;;;;;;10.60;5.88;;;19.80;99.90;;;;;;5133294;27;20120;-78
2023/05/14 09:59:45;;;;;;;17.05;5.40;;;19.90;99.90;;;;;;5133667;27;20042;-81
2023/05/14 10:02:26;;;;;;;12.15;5.70;;;20.00;99.90;;;;;;5130246;27;20131;-82
2023/05/14 10:04:53;;;;;;;10.80;6.72;;;20.20;99.90;;;;;;5125837;27;20035;-85
2023/05/14 10:07:28;;;;;;;12.60;6.15;;;20.30;99.90;;;;;;5118892;27;20461;-83
2023/05/14 10:09:58;;;;;;;13.68;5.50;;;20.40;99.90;;;;;;5104342;27;20501;-82
2023/05/14 10:12:30;;;;;;;11.38;5.53;;;20.50;99.90;;;;;;5128060;27;20237;-81
2023/05/14 10:14:58;;;;;;;13.77;6.00;;;20.50;99.90;;;;;;5129492;27;20525;-81
2023/05/14 10:17:29;;;;;;;12.80;5.68;;;20.50;99.90;;;;;;5126669;27;20051;-81
2023/05/14 10:19:57;;;;;;;13.38;6.55;;;20.50;99.90;;;;;;5119772;27;20123;-81
2023/05/14 10:22:26;;;;;;;13.52;5.28;;;20.60;99.90;;;;;;5110401;27;20062;-81
2023/05/14 10:24:54;;;;;;;11.07;6.00;;;20.60;99.90;;;;;;5133343;27;20441;-82
2023/05/14 10:27:21;;;;;;;12.98;5.45;;;20.60;99.90;;;;;;5150636;27;20484;-81
2023/05/14 10:29:53;;;;;;;12.30;6.10;;;20.60;99.90;;;;;;5131060;27;20035;-84
2023/05/14 10:32:22;;;;;;;11.63;5.90;;;20.60;99.90;;;;;;5112790;27;20081;-81
2023/05/14 10:34:48;;;;;;;12.23;6.35;;;20.60;99.90;;;;;;5132879;27;20118;-80
2023/05/14 10:37:17;;;;;;;11.63;5.70;;;20.60;99.90;;;;;;5130663;27;20115;-80
2023/05/14 10:39:48;;;;;;;7.97;5.35;;;20.60;99.90;;;;;;5132424;27;20049;-81
2023/05/14 10:42:18;;;;;;;20.45;6.57;;;20.70;99.90;;;;;;5119437;27;20581;-80
2023/05/14 10:45:06;;;;;;;15.93;6.35;;;20.60;99.90;;;;;;5147707;27;20114;-81
2023/05/14 10:47:33;;;;;;;14.25;6.75;;;20.60;99.90;;;;;;5128220;27;20085;-79
2023/05/14 10:50:02;;;;;;;14.32;6.75;;;20.60;99.90;;;;;;5101077;27;20035;-81
2023/05/14 10:52:28;;;;;;;13.65;6.65;;;20.60;99.90;;;;;;5119508;27;20054;-80
2023/05/14 10:54:56;;;;;;;13.25;6.55;;;20.60;99.90;;;;;;5123579;27;20035;-80
2023/05/14 10:57:25;;;;;;;16.42;6.30;;;20.70;99.90;;;;;;5123243;27;20451;-80
2023/05/14 10:59:53;;;;;;;14.60;7.25;;;20.80;99.90;;;;;;5118644;27;20453;-80
2023/05/14 11:02:31;;;;;;;14.65;7.38;;;20.90;99.90;;;;;;5099003;27;20053;-78
2023/05/14 11:05:04;;;;;;;13.88;6.97;;;21.00;99.90;;;;;;5130679;27;20446;-79
2023/05/14 11:07:32;;;;;;;11.63;6.85;;;21.00;99.90;;;;;;5110865;27;20047;-79
2023/05/14 11:10:02;;;;;;;15.43;6.70;;;21.00;99.90;;;;;;5127691;27;20046;-79
2023/05/14 11:12:28;;;;;;;8.88;6.53;;;21.10;99.90;;;;;;5121864;27;20047;-79
2023/05/14 11:14:57;;;;;;;13.90;7.43;;;21.10;99.90;;;;;;5110850;27;20493;-79
2023/05/14 11:17:25;;;;;;;11.15;6.97;;;21.00;99.90;;;;;;5130383;27;20047;-77
2023/05/14 11:19:50;;;;;;;12.73;6.40;;;21.00;99.90;;;;;;5130455;27;20486;-79
2023/05/14 11:22:16;;;;;;;6.88;2.80;;;21.10;99.90;;;;;;5130332;27;20031;-79
2023/05/14 11:24:42;;;;;;;7.00;3.78;;;21.20;99.90;;;;;;5131301;27;20129;-79
2023/05/14 11:27:08;;;;;;;8.75;3.88;;;21.30;99.90;;;;;;5130627;27;20118;-79
2023/05/14 11:29:35;;;;;;;13.43;3.58;;;21.50;99.90;;;;;;5130813;27;20041;-79
2023/05/14 11:32:04;;;;;;;6.97;2.90;;;21.60;99.90;;;;;;5127769;27;20573;-79
2023/05/14 11:34:30;;;;;;;6.50;3.22;;;21.80;99.90;;;;;;5106011;27;20431;-79
2023/05/14 11:36:55;;;;;;;5.93;2.83;;;21.90;99.90;;;;;;5127736;27;20054;-79
2023/05/14 11:39:21;;;;;;;8.32;3.35;;;22.10;99.90;;;;;;5143553;27;20049;-78
2023/05/14 11:41:47;;;;;;;6.20;3.00;;;22.10;99.30;;;;;;5123610;27;20481;-79
2023/05/14 11:44:12;;;;;;;8.63;2.88;;;22.20;99.10;;;;;;5122410;27;20035;-79
2023/05/14 11:46:38;;;;;;;7.57;2.95;;;22.10;98.80;;;;;;5148596;27;20138;-79
2023/05/14 11:49:05;;;;;;;10.43;2.80;;;22.00;97.90;;;;;;5150278;27;20113;-79
2023/05/14 11:51:31;;;;;;;9.50;3.05;;;22.00;98.10;;;;;;5149088;27;20051;-79
2023/05/14 11:53:58;;;;;;;10.88;2.50;;;22.00;97.30;;;;;;5128598;27;20602;-79
2023/05/14 11:56:23;;;;;;;7.03;2.00;;;22.00;97.20;;;;;;5126735;27;20051;-78
2023/05/14 11:58:55;;;;;;;4.78;1.98;;;22.10;96.40;;;;;;5124350;27;20046;-79
2023/05/14 12:01:22;;;;;;;7.03;2.25;;;22.30;97.50;;;;;;5134613;27;20035;-79
2023/05/14 12:03:49;;;;;;;6.97;2.20;;;22.40;96.60;;;;;;5141731;27;20035;-79
2023/05/14 12:06:16;;;;;;;7.32;2.63;;;22.50;95.60;;;;;;5148798;27;20473;-79
2023/05/14 12:08:42;;;;;;;11.05;2.53;;;22.50;94.70;;;;;;5148916;27;20050;-79
2023/05/14 12:11:08;;;;;;;8.30;2.88;;;22.50;95.10;;;;;;5130759;27;20694;-78
2023/05/14 12:13:35;;;;;;;6.97;2.25;;;22.40;94.40;;;;;;5128545;27;20112;-79
2023/05/14 12:16:02;;;;;;;10.52;2.55;;;22.30;94.00;;;;;;5129175;27;20050;-79
2023/05/14 12:18:30;;;;;;;7.18;2.53;;;22.30;93.20;;;;;;5148153;27;20046;-79
2023/05/14 12:21:02;;;;;;;8.57;2.25;;;22.30;92.60;;;;;;5130064;27;20050;-79
2023/05/14 12:23:29;;;;;;;9.30;2.78;;;22.30;92.10;;;;;;5108827;27;20043;-79
2023/05/14 12:26:00;;;;;;;6.90;2.80;;;22.40;92.10;;;;;;5127638;27;20098;-79
2023/05/14 12:28:27;;;;;;;6.10;2.00;;;22.40;92.10;;;;;;5126480;27;20096;-79
2023/05/14 12:30:56;;;;;;;9.52;2.90;;;22.50;93.10;;;;;;5146399;27;20049;-80
2023/05/14 12:33:22;;;;;;;9.40;2.50;;;22.50;92.00;;;;;;5148637;27;20119;-79